Time;durP1;ratioP1;P1;durP2;ratioP2;P2;SDS_P1;SDS_P2;PMS_P1;PMS_P2;Temp;Humidity;BMP_temperature;BMP_pressure;BME280_temperature;BME280_humidity;BME280_pressure;Samples;Min_cycle;Max_cycle;Signal;HPM_P1;HPM_P2
2023/01/30 00:00:35;;;;;;;8.95;5.05;;;;;;;13.71;49.38;100603.72;5011747;28;20067;-83
2023/01/30 00:03:01;;;;;;;9.30;5.53;;;;;;;13.75;49.33;100610.66;5014580;28;20030;-83
2023/01/30 00:05:26;;;;;;;9.25;5.15;;;;;;;13.74;49.17;100611.53;5013262;28;20030;-83
2023/01/30 00:07:54;;;;;;;10.38;5.10;;;;;;;13.74;49.31;100606.28;5013657;28;20050;-83
2023/01/30 00:10:20;;;;;;;8.85;4.95;;;;;;;13.76;49.30;100609.78;5014486;28;20086;-83
2023/01/30 00:12:46;;;;;;;9.57;5.32;;;;;;;13.75;49.32;100608.03;5015149;28;20030;-83
2023/01/30 00:15:11;;;;;;;8.45;5.05;;;;;;;13.71;49.18;100595.84;5015206;28;20033;-84
2023/01/30 00:17:37;;;;;;;9.30;4.93;;;;;;;13.77;49.27;100606.25;5015585;28;20026;-83
2023/01/30 00:20:03;;;;;;;7.72;4.88;;;;;;;13.75;49.26;100597.53;5015019;28;20026;-82
2023/01/30 00:22:29;;;;;;;6.63;4.68;;;;;;;13.72;49.43;100597.56;5016104;28;20035;-83
2023/01/30 00:24:55;;;;;;;6.90;4.20;;;;;;;13.74;49.27;100595.78;5015054;28;20030;-83
2023/01/30 00:27:20;;;;;;;10.63;4.65;;;;;;;13.77;49.21;100603.63;5293702;23;20041;-83
2023/01/30 00:29:46;;;;;;;8.95;4.40;;;;;;;13.78;49.25;100602.72;5035619;28;20090;-83
2023/01/30 00:32:11;;;;;;;8.13;4.45;;;;;;;13.78;49.36;100600.09;5038355;28;20014;-85
2023/01/30 00:34:37;;;;;;;7.90;4.55;;;;;;;13.80;49.14;100606.22;5038681;28;20017;-82
2023/01/30 00:37:02;;;;;;;8.05;4.50;;;;;;;13.78;49.20;100597.50;5039315;28;20017;-84
2023/01/30 00:39:27;;;;;;;6.97;4.43;;;;;;;13.81;49.33;100602.72;5039456;28;20089;-85
2023/01/30 01:13:05;;;;;;;7.05;3.50;;;;;;;13.82;49.30;100593.94;5097709;23;20422;-84
2023/01/30 01:15:32;;;;;;;6.88;4.10;;;;;;;13.83;49.21;100585.19;5048223;28;20101;-84
2023/01/30 01:17:58;;;;;;;6.50;3.88;;;;;;;13.79;49.17;100586.09;5048958;28;20465;-84
2023/01/30 01:20:24;;;;;;;8.45;4.15;;;;;;;13.79;49.17;100586.09;5052476;28;20089;-84
2023/01/30 01:22:54;;;;;;;6.93;3.90;;;;;;;13.81;49.29;100592.22;5056342;28;20014;-84
2023/01/30 01:25:21;;;;;;;6.72;4.20;;;;;;;13.79;49.15;100591.34;5056546;28;20083;-84
2023/01/30 01:27:47;;;;;;;7.15;3.53;;;;;;;13.83;49.18;100596.56;5057357;28;20085;-85
2023/01/30 01:30:13;;;;;;;6.13;3.60;;;;;;;13.81;49.19;100589.59;5057877;28;20028;-85
2023/01/30 06:02:35;;;;;;;3.63;1.90;;;;;;;14.12;49.29;100675.78;5859968;23;20076;-83
2023/01/30 06:05:01;;;;;;;3.40;1.90;;;;;;;14.12;49.04;100678.41;5050847;28;20029;-83
2023/01/30 06:07:26;;;;;;;3.15;1.83;;;;;;;14.15;49.12;100681.03;5055650;28;20028;-84
2023/01/30 06:09:52;;;;;;;3.97;2.22;;;;;;;14.16;49.05;100693.25;5054727;28;20021;-83
2023/01/30 06:12:18;;;;;;;3.25;2.03;;;;;;;14.14;49.16;100681.03;5056344;28;20032;-84
2023/01/30 06:14:43;;;;;;;2.67;1.70;;;;;;;14.18;48.87;100688.84;5056129;28;20025;-83
2023/01/30 06:17:09;;;;;;;3.03;1.75;;;;;;;14.14;48.97;100686.28;5055808;28;20085;-83
2023/01/30 06:19:35;;;;;;;3.30;2.00;;;;;;;14.18;49.20;100686.22;5056022;28;20113;-84
2023/01/30 06:22:01;;;;;;;3.05;1.70;;;;;;;14.20;48.97;100694.94;5054325;28;20060;-83
2023/01/30 06:24:27;;;;;;;3.70;2.10;;;;;;;14.18;49.10;100691.47;5053301;28;20024;-84
2023/01/30 06:26:53;;;;;;;3.13;1.90;;;;;;;14.20;48.86;100697.56;5051989;28;20022;-82
2023/01/30 06:29:18;;;;;;;3.90;2.15;;;;;;;14.20;48.85;100694.94;5050727;28;20026;-83
2023/01/30 06:31:45;;;;;;;4.22;2.13;;;;;;;14.16;49.03;100698.50;5054033;28;20017;-83
2023/01/30 06:34:11;;;;;;;3.42;1.90;;;;;;;14.19;49.07;100687.94;5053728;28;20555;-83
2023/01/30 06:36:36;;;;;;;2.65;1.70;;;;;;;14.18;49.01;100688.84;5053811;28;20021;-83
2023/01/30 06:39:02;;;;;;;3.67;1.90;;;;;;;14.18;49.08;100696.72;5054990;28;20025;-83
2023/01/30 06:41:28;;;;;;;3.10;1.70;;;;;;;14.25;49.03;100696.63;5059761;28;20065;-84
2023/01/30 06:43:54;;;;;;;3.42;1.88;;;;;;;14.22;48.89;100680.03;5058392;28;20095;-84
2023/01/30 06:46:20;;;;;;;3.08;1.95;;;;;;;14.20;49.08;100679.19;5059401;28;20048;-84
2023/01/30 06:48:46;;;;;;;3.15;2.00;;;;;;;14.22;49.13;100682.66;5059756;28;20028;-84
2023/01/30 06:51:12;;;;;;;3.10;1.83;;;;;;;14.21;49.03;100686.19;5058958;28;20018;-84
2023/01/30 06:53:37;;;;;;;3.03;1.90;;;;;;;14.24;49.12;100682.63;5058419;28;20028;-84
2023/01/30 06:56:03;;;;;;;3.00;1.90;;;;;;;14.26;48.93;100687.88;5058356;28;20012;-84
2023/01/30 06:58:29;;;;;;;3.40;1.70;;;;;;;14.25;48.98;100691.38;5057272;28;20059;-83
2023/01/30 07:00:55;;;;;;;2.80;1.80;;;;;;;14.27;48.81;100689.59;5055861;28;20022;-83
2023/01/30 07:05:57;;;;;;;3.58;1.90;;;;;;;14.28;48.97;100707.13;6140116;22;20016;-80
2023/01/30 07:08:23;;;;;;;2.53;1.65;;;;;;;14.30;49.06;100700.06;5055552;28;20056;-83
2023/01/30 07:10:48;;;;;;;2.35;1.73;;;;;;;14.28;48.86;100702.72;5053385;28;20025;-84
2023/01/30 07:13:14;;;;;;;2.85;1.70;;;;;;;14.31;48.90;100704.44;5054697;28;20051;-84
2023/01/30 07:15:39;;;;;;;2.85;1.60;;;;;;;14.31;48.99;100720.19;5060486;28;20085;-85
2023/01/30 07:36:11;;;;;;;2.95;1.88;;;;;;;14.31;48.87;100709.69;6081094;23;20016;-83
2023/01/30 07:49:05;;;;;;;2.97;1.90;;;;;;;14.34;49.06;100722.78;5987056;22;19928;-84
2023/01/30 07:51:31;;;;;;;2.78;1.77;;;;;;;14.36;48.82;100721.00;5059039;28;20037;-84
2023/01/30 07:53:56;;;;;;;3.55;2.05;;;;;;;14.35;49.03;100725.38;5033820;28;20029;-74
2023/01/30 07:56:22;;;;;;;3.55;2.15;;;;;;;14.38;48.86;100728.88;5033840;28;20056;-73
2023/01/30 07:58:51;;;;;;;3.63;2.00;;;;;;;14.38;48.67;100729.72;5033799;28;20404;-73
2023/01/30 08:01:16;;;;;;;3.83;2.00;;;;;;;14.38;49.01;100729.72;5032461;28;20029;-73
2023/01/30 08:03:44;;;;;;;3.30;1.80;;;;;;;14.38;49.03;100734.97;5033615;28;20044;-73
2023/01/30 08:06:11;;;;;;;3.00;1.70;;;;;;;14.40;49.08;100732.31;5032515;28;20025;-73
2023/01/30 08:08:36;;;;;;;3.22;1.88;;;;;;;14.39;49.11;100726.22;5033421;28;20031;-72
2023/01/30 08:11:02;;;;;;;3.90;2.00;;;;;;;14.40;48.95;100727.97;5026015;28;20112;-73
2023/01/30 08:13:28;;;;;;;2.90;1.90;;;;;;;14.41;48.93;100734.06;5027248;28;20025;-73
2023/01/30 08:15:54;;;;;;;3.65;1.80;;;;;;;14.43;48.91;100746.28;5022277;28;20045;-73
2023/01/30 08:18:19;;;;;;;4.05;1.88;;;;;;;14.43;48.96;100759.41;5022895;28;20029;-74
2023/01/30 08:20:45;;;;;;;3.50;2.00;;;;;;;14.43;48.93;100743.66;5021108;28;20026;-73
2023/01/30 08:23:10;;;;;;;3.78;1.70;;;;;;;14.42;48.90;100752.44;5030188;28;20064;-73
2023/01/30 08:25:36;;;;;;;3.95;2.20;;;;;;;14.42;48.76;100752.44;5033353;28;20083;-74
2023/01/30 08:28:03;;;;;;;2.72;1.63;;;;;;;14.43;48.79;100769.06;5032969;28;20021;-73
2023/01/30 08:30:31;;;;;;;3.50;1.92;;;;;;;14.46;48.84;100769.91;5033500;28;20151;-73
2023/01/30 08:32:57;;;;;;;3.38;1.90;;;;;;;14.45;48.90;100776.03;5033247;28;20128;-73
2023/01/30 08:35:23;;;;;;;2.95;1.80;;;;;;;14.44;48.98;100782.16;5034171;28;20041;-73
2023/01/30 08:37:48;;;;;;;3.38;2.13;;;;;;;14.45;49.05;100767.28;5033776;28;20033;-73
2023/01/30 08:40:14;;;;;;;3.65;1.85;;;;;;;14.44;48.97;100776.91;5032056;28;20025;-74
2023/01/30 08:42:42;;;;;;;3.10;2.13;;;;;;;14.46;48.83;100780.41;5021001;28;20497;-75
2023/01/30 08:45:08;;;;;;;2.78;1.67;;;;;;;14.45;48.83;100770.78;5013394;28;20018;-74
2023/01/30 08:47:34;;;;;;;3.22;2.03;;;;;;;14.46;49.03;100772.53;5024337;28;20026;-74
2023/01/30 08:50:00;;;;;;;3.83;1.75;;;;;;;14.44;49.10;100765.56;5032536;28;20049;-73
2023/01/30 08:52:25;;;;;;;2.83;1.55;;;;;;;14.45;48.95;100765.53;5022525;28;20128;-73
2023/01/30 08:54:51;;;;;;;3.15;1.60;;;;;;;14.45;49.05;100762.91;5013095;28;20029;-73
2023/01/30 08:57:16;;;;;;;2.38;1.70;;;;;;;14.47;48.96;100763.75;5013187;28;20032;-73
2023/01/30 08:59:41;;;;;;;2.63;1.60;;;;;;;14.45;48.83;100770.78;5013072;28;20060;-74
2023/01/30 09:02:10;;;;;;;3.05;1.60;;;;;;;14.51;48.83;100761.94;5020253;28;20030;-73
2023/01/30 09:04:36;;;;;;;3.28;1.60;;;;;;;14.46;48.74;100764.66;5032877;28;20477;-73
2023/01/30 09:07:01;;;;;;;4.03;1.80;;;;;;;14.50;48.91;100758.44;5032763;28;20032;-73
2023/01/30 09:09:28;;;;;;;3.17;1.70;;;;;;;14.49;48.87;100759.34;5033017;28;20025;-73
2023/01/30 09:11:53;;;;;;;3.95;2.35;;;;;;;14.47;48.86;100761.13;5027207;28;20539;-73
2023/01/30 09:14:19;;;;;;;3.95;1.83;;;;;;;14.50;48.86;100774.19;5012896;28;20025;-73
2023/01/30 09:16:45;;;;;;;3.55;2.00;;;;;;;14.50;48.93;100776.81;5012659;28;20030;-73
2023/01/30 09:19:11;;;;;;;3.20;1.75;;;;;;;14.50;48.78;100776.81;5018815;28;20026;-73
2023/01/30 09:21:37;;;;;;;3.22;1.67;;;;;;;14.52;48.96;100789.94;5019597;28;20367;-73
2023/01/30 09:24:03;;;;;;;3.80;1.70;;;;;;;14.48;48.85;100783.88;5033172;28;20037;-73
2023/01/30 09:26:29;;;;;;;3.53;2.00;;;;;;;14.54;48.94;100789.94;5033126;28;20021;-73
2023/01/30 09:28:55;;;;;;;3.03;1.73;;;;;;;14.53;48.77;100799.56;5032961;28;20493;-73
2023/01/30 09:31:20;;;;;;;3.22;1.80;;;;;;;14.53;48.55;100811.84;5032072;28;20044;-73
2023/01/30 09:33:45;;;;;;;3.25;1.75;;;;;;;14.54;48.63;100809.22;5011954;28;20524;-73
2023/01/30 09:36:11;;;;;;;3.05;1.70;;;;;;;14.56;48.90;100812.66;5014487;28;20029;-73
2023/01/30 09:38:36;;;;;;;3.67;1.70;;;;;;;14.55;48.88;100810.06;5019174;28;20021;-73
2023/01/30 09:41:35;;;;;;;3.75;2.03;;;;;;;14.56;48.88;100811.78;5035630;28;20029;-75
2023/01/30 09:44:19;;;;;;;3.65;1.90;;;;;;;14.58;48.72;100821.41;5018055;28;20141;-73
2023/01/30 09:46:51;;;;;;;3.35;2.00;;;;;;;14.58;48.59;100816.13;5017740;28;20078;-73
2023/01/30 09:49:23;;;;;;;3.58;2.05;;;;;;;14.56;48.55;100803.91;5018112;28;20057;-73
2023/01/30 09:52:05;;;;;;;2.88;1.80;;;;;;;14.57;48.46;100816.19;5022519;28;20055;-73
2023/01/30 09:54:35;;;;;;;3.40;1.95;;;;;;;14.57;48.59;100821.44;5039368;28;20413;-73
2023/01/30 09:57:10;;;;;;;3.92;1.92;;;;;;;14.58;48.84;100823.16;5038886;28;20025;-73
2023/01/30 09:59:48;;;;;;;3.83;2.00;;;;;;;14.58;48.81;100825.78;5036632;28;20036;-73
2023/01/30 10:02:25;;;;;;;3.17;1.88;;;;;;;14.62;48.70;100827.47;5028615;28;20765;-73
2023/01/30 10:04:51;;;;;;;3.35;1.75;;;;;;;14.58;48.83;100831.91;5016763;28;20172;-73
2023/01/30 10:07:53;;;;;;;4.88;2.05;;;;;;;14.61;48.71;100825.75;5016457;28;20112;-73
2023/01/30 10:10:24;;;;;;;3.25;1.77;;;;;;;14.61;48.52;100831.00;5016483;28;20030;-73
2023/01/30 10:13:14;;;;;;;2.60;1.63;;;;;;;14.61;48.54;100829.25;5028386;28;20079;-73
2023/01/30 10:16:05;;;;;;;4.18;1.90;;;;;;;14.60;48.51;100837.16;5035536;28;20040;-73
2023/01/30 10:18:57;;;;;;;3.58;1.75;;;;;;;14.63;48.67;100843.22;4994142;28;20034;-73
2023/01/30 10:21:40;;;;;;;3.38;1.80;;;;;;;14.64;48.50;100836.22;4994064;28;20532;-73
2023/01/30 10:24:36;;;;;;;3.85;1.88;;;;;;;14.63;48.67;100835.34;4974726;28;20039;-73
2023/01/30 10:27:03;;;;;;;2.90;1.75;;;;;;;14.63;48.56;100834.50;4974660;28;20037;-73
2023/01/30 10:29:37;;;;;;;3.33;2.10;;;;;;;14.61;48.66;100839.75;4974505;28;20074;-73
2023/01/30 10:32:15;;;;;;;2.90;1.92;;;;;;;14.63;48.74;100842.38;4974395;28;20394;-73
2023/01/30 10:34:47;;;;;;;3.05;1.95;;;;;;;14.63;48.74;100840.59;4974448;28;20467;-73
2023/01/30 10:37:37;;;;;;;3.22;1.98;;;;;;;14.64;48.69;100841.47;4974408;28;20077;-73
2023/01/30 10:40:21;;;;;;;2.72;1.80;;;;;;;14.64;48.52;100836.22;4988798;28;20080;-73
2023/01/30 10:43:26;;;;;;;2.95;1.73;;;;;;;14.67;48.60;100828.28;4993926;28;20398;-73
2023/01/30 10:46:10;;;;;;;3.13;1.90;;;;;;;14.66;48.66;100821.31;4993439;28;20033;-72
2023/01/30 10:49:00;;;;;;;3.08;1.75;;;;;;;14.67;48.69;100820.41;4993426;28;20038;-73
2023/01/30 10:51:56;;;;;;;2.95;1.75;;;;;;;14.70;48.76;100811.63;4993038;28;20109;-72
2023/01/30 10:54:34;;;;;;;3.80;1.95;;;;;;;14.68;48.66;100811.63;4994201;28;20069;-72
2023/01/30 10:57:31;;;;;;;3.58;1.70;;;;;;;14.70;48.74;100815.13;5034930;28;20127;-73
2023/01/30 11:00:04;;;;;;;2.67;1.70;;;;;;;14.69;48.75;100813.41;5034714;28;20037;-72
2023/01/30 11:02:58;;;;;;;3.00;1.77;;;;;;;14.72;48.62;100808.09;5015442;28;20121;-73
2023/01/30 11:05:26;;;;;;;3.42;2.00;;;;;;;14.73;48.72;100812.44;5015142;28;20026;-73
2023/01/30 11:07:52;;;;;;;3.40;1.98;;;;;;;14.72;48.70;100813.34;5015199;28;20457;-73
2023/01/30 11:10:22;;;;;;;3.15;2.10;;;;;;;14.72;48.35;100801.97;5016420;28;20101;-73
2023/01/30 11:12:54;;;;;;;2.80;1.67;;;;;;;14.73;48.59;100799.31;5034424;28;20054;-73
2023/01/30 11:15:23;;;;;;;2.63;1.60;;;;;;;14.74;48.58;100816.88;5034734;28;20057;-72
2023/01/30 11:17:49;;;;;;;2.28;1.60;;;;;;;14.74;48.63;100795.84;5034833;28;20028;-73
2023/01/30 11:20:17;;;;;;;3.80;2.00;;;;;;;14.75;48.49;100797.59;5034375;28;20029;-74
2023/01/30 11:22:49;;;;;;;3.33;1.90;;;;;;;14.79;48.62;100792.28;5034844;28;20021;-73
2023/01/30 11:25:17;;;;;;;3.58;2.10;;;;;;;14.77;48.47;100798.41;5031923;28;20402;-73
2023/01/30 11:27:52;;;;;;;3.65;1.95;;;;;;;14.77;48.43;100798.41;5034437;28;20120;-73
2023/01/30 11:30:19;;;;;;;3.28;1.80;;;;;;;14.79;48.47;100787.91;5033196;28;20021;-73
2023/01/30 11:32:48;;;;;;;2.88;1.75;;;;;;;14.81;48.64;100790.50;5014503;28;20033;-73
2023/01/30 11:35:13;;;;;;;3.47;2.17;;;;;;;14.83;48.54;100793.97;5014366;28;20034;-73
2023/01/30 11:37:43;;;;;;;2.83;1.70;;;;;;;14.82;48.84;100789.63;5014527;28;20210;-73
2023/01/30 11:40:27;;;;;;;2.97;1.80;;;;;;;14.81;48.55;100791.34;5029963;28;20477;-74
2023/01/30 11:43:02;;;;;;;3.03;2.10;;;;;;;14.83;48.37;100789.59;5014198;28;20105;-72
2023/01/30 11:45:33;;;;;;;4.38;2.17;;;;;;;14.82;48.43;100784.34;5013017;28;20021;-73
2023/01/30 11:48:03;;;;;;;2.85;1.90;;;;;;;14.84;48.47;100785.19;5014341;28;20033;-72
2023/01/30 11:50:46;;;;;;;3.47;2.03;;;;;;;14.85;48.24;100781.66;5016230;28;20521;-70
2023/01/30 11:53:35;;;;;;;3.22;1.67;;;;;;;14.84;48.71;100774.69;5033740;28;20103;-73
2023/01/30 11:56:33;;;;;;;2.67;1.70;;;;;;;14.87;48.67;100774.66;5033665;28;20034;-71
2023/01/30 11:59:03;;;;;;;2.70;1.85;;;;;;;14.87;48.54;100769.41;5033275;28;20553;-73
2023/01/30 12:01:35;;;;;;;2.88;1.70;;;;;;;14.88;48.41;100771.13;5023395;28;20454;-72
2023/01/30 12:04:06;;;;;;;2.67;1.70;;;;;;;14.90;48.43;100774.59;5011988;28;20025;-73
2023/01/30 12:06:36;;;;;;;3.80;2.22;;;;;;;14.91;48.41;100765.81;5014020;28;20029;-73
2023/01/30 12:09:02;;;;;;;3.17;1.92;;;;;;;14.90;48.42;100756.19;5013922;28;20650;-72
2023/01/30 12:11:28;;;;;;;4.30;2.33;;;;;;;14.91;48.35;100755.28;5023604;28;20021;-72
2023/01/30 12:14:05;;;;;;;3.28;2.10;;;;;;;14.92;48.41;100762.31;5033714;28;20534;-73
2023/01/30 12:16:50;;;;;;;3.33;1.90;;;;;;;14.91;48.56;100755.28;5033569;28;20025;-73
2023/01/30 12:19:34;;;;;;;4.53;2.13;;;;;;;14.92;48.43;100749.19;5033387;28;20053;-73
2023/01/30 12:21:59;;;;;;;3.83;1.90;;;;;;;14.93;48.35;100748.28;5033384;28;20076;-72
2023/01/30 12:24:37;;;;;;;3.60;1.95;;;;;;;14.95;48.61;100751.75;5033495;28;20026;-73
2023/01/30 12:27:25;;;;;;;4.90;2.10;;;;;;;14.96;48.56;100758.72;5033208;28;20029;-73
2023/01/30 12:30:11;;;;;;;4.07;2.00;;;;;;;14.97;48.48;100755.19;5033384;28;20021;-73
2023/01/30 12:32:36;;;;;;;3.10;2.05;;;;;;;14.95;48.56;100749.13;5014154;28;20050;-73
2023/01/30 12:35:14;;;;;;;3.67;2.10;;;;;;;14.97;48.52;100749.94;5013437;28;20451;-73
2023/01/30 12:37:59;;;;;;;3.42;1.98;;;;;;;14.97;48.42;100733.31;5014065;28;20025;-72
2023/01/30 12:40:58;;;;;;;4.05;2.00;;;;;;;14.97;48.52;100734.19;5030232;28;20096;-72
2023/01/30 12:43:50;;;;;;;3.15;1.83;;;;;;;14.99;48.48;100735.03;5014362;28;20034;-74
2023/01/30 12:46:24;;;;;;;3.47;2.15;;;;;;;15.00;48.64;100722.75;5015619;28;20041;-72
2023/01/30 12:49:21;;;;;;;4.03;2.10;;;;;;;15.01;48.41;100720.09;5013832;28;20030;-73
2023/01/30 12:52:18;;;;;;;2.93;1.97;;;;;;;15.02;48.73;100716.56;5024949;28;20036;-73
2023/01/30 12:54:50;;;;;;;3.28;1.88;;;;;;;15.04;48.46;100708.66;5032514;28;20397;-72
2023/01/30 12:57:33;;;;;;;3.47;2.28;;;;;;;15.04;48.52;100700.78;5032920;28;20034;-72
2023/01/30 13:00:30;;;;;;;3.05;1.95;;;;;;;15.06;48.48;100690.25;5032805;28;20037;-73
2023/01/30 13:03:20;;;;;;;3.70;2.20;;;;;;;15.06;48.63;100692.88;5013186;28;20079;-72
2023/01/30 13:05:53;;;;;;;3.90;1.92;;;;;;;15.06;48.62;100695.50;5013047;28;20413;-72
2023/01/30 13:08:18;;;;;;;2.95;1.88;;;;;;;15.07;48.54;100687.59;5012983;28;20018;-72
2023/01/30 13:10:44;;;;;;;4.22;2.47;;;;;;;15.06;48.46;100690.25;5015667;28;20079;-73
2023/01/30 13:13:12;;;;;;;3.67;2.17;;;;;;;15.13;48.45;100686.63;5047875;28;20415;-72
2023/01/30 13:15:52;;;;;;;4.32;2.10;;;;;;;15.09;48.42;100679.66;5037481;28;20033;-72
2023/01/30 13:18:22;;;;;;;3.08;2.13;;;;;;;15.10;48.37;100676.13;5054563;28;20109;-72
2023/01/30 13:21:14;;;;;;;5.57;2.47;;;;;;;15.11;48.51;100680.53;5032585;28;20553;-72
2023/01/30 13:23:42;;;;;;;5.53;2.47;;;;;;;15.11;48.46;100680.53;5018966;28;20029;-73
2023/01/30 13:26:12;;;;;;;3.85;2.20;;;;;;;15.12;48.49;100671.75;5019518;28;20034;-72
2023/01/30 13:28:42;;;;;;;4.47;1.98;;;;;;;15.14;48.74;100662.06;5019612;28;20037;-72
2023/01/30 13:31:12;;;;;;;4.68;2.03;;;;;;;15.12;48.63;100674.38;5023905;28;20024;-73
2023/01/30 13:33:41;;;;;;;4.43;2.13;;;;;;;15.12;48.70;100674.38;5039660;28;20056;-72
2023/01/30 13:36:07;;;;;;;4.70;2.30;;;;;;;15.13;48.55;100676.09;5039796;28;20063;-72
2023/01/30 13:38:35;;;;;;;3.75;2.17;;;;;;;15.14;48.74;100672.56;5039100;28;20072;-72
2023/01/30 13:41:02;;;;;;;4.25;2.35;;;;;;;15.17;48.63;100667.28;5034712;28;20022;-72
2023/01/30 13:43:38;;;;;;;4.63;2.17;;;;;;;15.19;48.68;100670.75;5019508;28;20547;-73
2023/01/30 13:46:08;;;;;;;4.73;2.27;;;;;;;15.16;48.39;100660.28;5019248;28;20072;-73
2023/01/30 13:48:33;;;;;;;4.63;2.33;;;;;;;15.18;48.74;100647.97;5019569;28;20048;-71
2023/01/30 13:51:17;;;;;;;3.20;2.03;;;;;;;15.19;48.65;100660.22;5024647;28;20481;-73
2023/01/30 13:53:52;;;;;;;3.78;2.20;;;;;;;15.19;48.71;100654.09;5039461;28;20594;-73
2023/01/30 13:56:42;;;;;;;4.15;2.63;;;;;;;15.21;48.58;100647.91;5039613;28;20025;-73
2023/01/30 13:59:34;;;;;;;4.65;2.30;;;;;;;15.22;48.83;100660.19;5039112;28;20501;-72
2023/01/30 14:02:02;;;;;;;4.60;2.33;;;;;;;15.21;48.65;100658.41;5039040;28;20036;-73
2023/01/30 14:04:40;;;;;;;4.20;2.20;;;;;;;15.23;48.64;100651.41;5039056;28;20116;-72
2023/01/30 14:07:11;;;;;;;4.70;2.45;;;;;;;15.21;48.65;100650.53;5039068;28;20076;-72
2023/01/30 14:10:09;;;;;;;5.40;2.30;;;;;;;15.23;48.56;100643.50;5039438;28;20033;-73
2023/01/30 14:12:47;;;;;;;3.42;1.88;;;;;;;15.21;48.83;100652.31;5015752;28;20409;-73
2023/01/30 14:15:12;;;;;;;3.78;2.40;;;;;;;15.23;48.79;100654.03;5021263;28;20030;-72
2023/01/30 14:17:38;;;;;;;4.55;2.20;;;;;;;15.23;48.66;100664.53;5019185;28;20032;-73
2023/01/30 14:20:16;;;;;;;4.45;2.28;;;;;;;15.23;48.62;100661.03;5030577;28;20144;-72
2023/01/30 14:22:53;;;;;;;3.55;2.28;;;;;;;15.26;48.80;100669.72;5038300;28;20033;-72
2023/01/30 14:25:21;;;;;;;3.88;2.38;;;;;;;15.25;48.61;100669.78;5038633;28;20029;-73
2023/01/30 14:27:51;;;;;;;4.10;2.40;;;;;;;15.28;48.55;100670.59;5034897;28;20108;-73
2023/01/30 14:30:36;;;;;;;4.25;2.40;;;;;;;15.28;48.52;100660.06;5035589;28;20041;-72
2023/01/30 14:33:20;;;;;;;4.53;2.40;;;;;;;15.28;48.81;100662.69;5015727;28;20061;-72
2023/01/30 14:36:10;;;;;;;4.00;2.17;;;;;;;15.29;48.48;100663.56;5015305;28;20108;-72
2023/01/30 14:38:37;;;;;;;5.13;2.42;;;;;;;15.31;48.45;100661.78;5010436;28;20064;-73
2023/01/30 14:41:02;;;;;;;4.10;2.22;;;;;;;15.32;48.50;100670.53;5035250;28;20017;-72
2023/01/30 14:43:40;;;;;;;3.75;2.35;;;;;;;15.30;48.50;100668.78;5035485;28;20481;-72
2023/01/30 14:46:11;;;;;;;4.70;2.40;;;;;;;15.34;48.58;100663.50;5035282;28;20021;-73
2023/01/30 14:48:59;;;;;;;4.45;2.47;;;;;;;15.33;48.81;100656.47;5035166;28;20029;-72
2023/01/30 14:51:29;;;;;;;4.22;2.13;;;;;;;15.33;48.50;100643.31;5034898;28;20087;-73
2023/01/30 14:54:01;;;;;;;3.85;2.15;;;;;;;15.33;48.70;100638.06;5034993;28;20096;-72
2023/01/30 14:56:39;;;;;;;3.78;2.08;;;;;;;15.34;48.62;100642.44;5050336;28;20389;-72
2023/01/30 14:59:25;;;;;;;3.85;2.25;;;;;;;15.35;48.65;100649.44;5034971;28;20482;-73
2023/01/30 15:02:13;;;;;;;3.92;2.50;;;;;;;15.35;48.43;100652.91;5024286;28;20026;-72
2023/01/30 15:05:00;;;;;;;4.43;2.55;;;;;;;15.37;48.33;100647.63;5014695;28;20506;-73
2023/01/30 15:07:46;;;;;;;3.55;2.40;;;;;;;15.35;48.63;100645.03;5015178;28;20037;-72
2023/01/30 15:10:39;;;;;;;4.00;2.40;;;;;;;15.37;48.62;100647.63;5014967;28;20029;-73
2023/01/30 15:13:15;;;;;;;4.93;2.42;;;;;;;15.36;48.48;100638.03;5014939;28;20121;-72
2023/01/30 15:16:12;;;;;;;4.20;2.30;;;;;;;15.36;48.69;100630.13;5014874;28;20054;-73
2023/01/30 15:18:50;;;;;;;4.35;2.35;;;;;;;15.40;48.67;100650.22;5005387;28;20030;-72
2023/01/30 15:21:21;;;;;;;3.60;2.13;;;;;;;15.40;48.64;100652.84;5034142;28;20021;-72
2023/01/30 15:23:57;;;;;;;4.32;2.63;;;;;;;15.38;48.57;100646.72;5034599;28;20032;-72
2023/01/30 15:26:47;;;;;;;3.80;2.40;;;;;;;15.40;48.42;100644.97;5033640;28;20553;-72
2023/01/30 15:29:33;;;;;;;3.67;2.30;;;;;;;15.42;48.37;100643.16;5034857;28;20060;-73
2023/01/30 15:32:02;;;;;;;3.60;2.17;;;;;;;15.41;48.30;100644.06;5023642;28;20104;-73
2023/01/30 15:34:33;;;;;;;4.68;2.60;;;;;;;15.45;48.57;100648.34;5014601;28;20034;-72
2023/01/30 15:36:58;;;;;;;5.47;2.60;;;;;;;15.42;48.35;100635.28;5016236;28;20105;-72
2023/01/30 15:39:26;;;;;;;4.57;2.42;;;;;;;15.44;48.63;100638.72;5022643;28;20108;-73
2023/01/30 15:41:56;;;;;;;4.15;2.47;;;;;;;15.45;48.28;100640.47;5024216;28;20432;-72
2023/01/30 15:44:33;;;;;;;4.45;2.47;;;;;;;15.44;48.38;100644.00;5014310;28;20406;-72
2023/01/30 15:47:16;;;;;;;4.55;2.50;;;;;;;15.46;48.27;100642.22;5014132;28;20034;-73
2023/01/30 15:49:54;;;;;;;5.43;2.65;;;;;;;15.48;48.29;100645.69;5013734;28;20048;-72
2023/01/30 15:52:22;;;;;;;4.13;2.40;;;;;;;15.49;48.15;100651.81;5027795;28;20028;-73
2023/01/30 15:54:53;;;;;;;3.97;2.15;;;;;;;15.48;48.26;100660.56;5033927;28;20540;-72
2023/01/30 15:57:30;;;;;;;4.82;2.67;;;;;;;15.47;48.51;100665.00;5033926;28;20029;-72
2023/01/30 15:59:57;;;;;;;4.20;2.25;;;;;;;15.49;48.45;100665.81;5033810;28;20057;-73
2023/01/30 16:02:29;;;;;;;4.35;2.40;;;;;;;15.46;48.39;100658.00;5033447;28;20029;-73
2023/01/30 16:05:05;;;;;;;4.45;2.63;;;;;;;15.49;48.53;100673.72;5033654;28;20029;-72
2023/01/30 16:07:31;;;;;;;4.75;2.67;;;;;;;15.48;48.38;100665.84;5033801;28;20021;-72
2023/01/30 16:09:57;;;;;;;3.88;2.40;;;;;;;15.50;48.48;100670.19;5033717;28;20029;-72
2023/01/30 16:12:28;;;;;;;3.95;2.38;;;;;;;15.49;48.53;100668.44;5019439;28;20355;-73
2023/01/30 16:14:57;;;;;;;3.50;1.98;;;;;;;15.47;48.27;100674.63;5013749;28;20389;-73
2023/01/30 16:17:29;;;;;;;3.58;1.98;;;;;;;15.51;48.42;100676.31;5013488;28;20034;-73
2023/01/30 16:19:58;;;;;;;4.35;2.55;;;;;;;15.52;48.47;100673.66;5025383;28;20022;-72
2023/01/30 16:22:26;;;;;;;3.42;2.15;;;;;;;15.52;48.36;100676.31;5033207;28;20039;-73
2023/01/30 16:24:53;;;;;;;3.53;1.98;;;;;;;15.52;48.50;100675.41;5033435;28;20030;-73
2023/01/30 16:27:32;;;;;;;4.10;2.38;;;;;;;15.51;48.48;100684.22;5033414;28;20103;-73
2023/01/30 16:30:03;;;;;;;4.43;2.63;;;;;;;15.54;48.40;100689.41;5033490;28;20032;-73
2023/01/30 16:32:31;;;;;;;3.88;2.25;;;;;;;15.53;48.50;100691.19;5018672;28;20029;-73
2023/01/30 16:35:23;;;;;;;3.78;2.15;;;;;;;15.55;48.17;100694.63;5014196;28;20026;-73
2023/01/30 16:37:50;;;;;;;4.30;2.28;;;;;;;15.53;48.47;100693.81;4952887;29;20499;-73
2023/01/30 16:40:23;;;;;;;3.60;2.38;;;;;;;15.54;48.36;100699.91;4969182;28;20549;-73
2023/01/30 16:42:57;;;;;;;4.07;2.17;;;;;;;15.56;48.31;100696.38;4972199;28;20041;-73
2023/01/30 16:45:35;;;;;;;3.67;2.33;;;;;;;15.56;48.30;100706.91;4969410;28;20037;-72
2023/01/30 16:48:34;;;;;;;4.72;2.28;;;;;;;15.57;48.43;100713.03;4971745;28;20041;-73
2023/01/30 16:50:59;;;;;;;4.20;2.53;;;;;;;15.55;48.31;100714.84;4968363;28;20047;-73
2023/01/30 16:53:32;;;;;;;4.13;2.42;;;;;;;15.55;48.45;100713.06;4956015;28;20026;-72
2023/01/30 16:56:01;;;;;;;3.90;2.45;;;;;;;15.59;48.22;100715.66;4971857;28;20043;-73
2023/01/30 16:58:32;;;;;;;4.68;2.70;;;;;;;15.55;48.50;100714.84;4972118;28;20022;-73
2023/01/30 17:01:00;;;;;;;3.78;2.47;;;;;;;15.60;47.99;100722.63;4971500;28;20031;-73
2023/01/30 17:03:30;;;;;;;3.78;2.28;;;;;;;15.57;48.14;100726.19;4972125;28;20118;-72
2023/01/30 17:05:57;;;;;;;5.07;2.50;;;;;;;15.56;48.40;100722.69;4971858;28;20031;-73
2023/01/30 17:08:45;;;;;;;4.13;2.40;;;;;;;15.57;48.26;100713.91;4955684;28;20503;-72
2023/01/30 17:11:27;;;;;;;4.75;2.40;;;;;;;15.59;48.40;100720.91;4971663;28;20050;-73
2023/01/30 17:14:19;;;;;;;4.32;2.45;;;;;;;15.61;48.23;100733.16;4979048;28;20038;-73
2023/01/30 17:17:06;;;;;;;3.70;2.28;;;;;;;15.61;48.37;100734.91;5032516;28;20108;-72
2023/01/30 17:19:32;;;;;;;3.90;2.50;;;;;;;15.59;48.21;100731.44;5032650;28;20037;-73
2023/01/30 17:22:00;;;;;;;5.43;2.60;;;;;;;15.61;48.29;100741.03;5032585;28;20045;-72